createdAt,value
2019-04-04T00:02:08.574Z,231
2019-04-04T00:07:08.546Z,232
2019-04-04T00:12:08.650Z,233
2019-04-04T00:17:08.569Z,231
2019-04-04T00:18:39.576Z,231
2019-04-04T00:18:43.537Z,231
2019-04-04T00:22:08.552Z,233
2019-04-04T00:27:08.574Z,233
2019-04-04T00:27:31.492Z,233
2019-04-04T00:27:43.930Z,233
2019-04-04T00:32:08.546Z,231
2019-04-04T00:37:08.539Z,231
2019-04-04T00:42:08.522Z,231
2019-04-04T00:42:35.490Z,231
2019-04-04T00:42:43.503Z,231
2019-04-04T00:46:28.942Z,233
2019-04-04T00:46:47.484Z,232
2019-04-04T00:47:08.537Z,232
2019-04-04T00:52:10.297Z,233
2019-04-04T00:57:08.548Z,233
2019-04-04T01:01:03.470Z,232
2019-04-04T01:01:07.469Z,231
2019-04-04T01:02:08.521Z,232
2019-04-04T01:04:47.503Z,232
2019-04-04T01:04:51.482Z,232
2019-04-04T01:07:07.476Z,232
2019-04-04T01:07:08.522Z,232
2019-04-04T01:07:11.501Z,232
2019-04-04T01:12:08.517Z,233
2019-04-04T01:17:08.525Z,232
2019-04-04T01:22:08.503Z,232
2019-04-04T01:27:08.541Z,233
2019-04-04T01:32:08.463Z,232
2019-04-04T01:37:08.495Z,232
2019-04-04T01:42:08.506Z,231
2019-04-04T01:47:08.460Z,231
2019-04-04T01:47:39.480Z,231
2019-04-04T01:47:43.419Z,231
2019-04-04T01:52:08.472Z,231
2019-04-04T01:57:08.797Z,233
2019-04-04T02:02:08.483Z,231
2019-04-04T02:07:08.470Z,231
2019-04-04T02:08:07.425Z,231
2019-04-04T02:08:11.389Z,232
2019-04-04T02:09:11.423Z,231
2019-04-04T02:09:15.389Z,231
2019-04-04T02:12:08.640Z,233
2019-04-04T02:13:14.413Z,234
2019-04-04T02:13:18.410Z,233
2019-04-04T02:17:06.381Z,233
2019-04-04T02:17:08.427Z,233
2019-04-04T02:17:42.382Z,233
2019-04-04T02:22:08.462Z,232
2019-04-04T02:27:08.472Z,231
2019-04-04T02:32:08.446Z,232
2019-04-04T02:37:08.428Z,231
2019-04-04T02:42:08.431Z,233
2019-04-04T02:42:55.515Z,232
2019-04-04T02:43:14.406Z,231
2019-04-04T02:47:08.475Z,231
2019-04-04T02:52:12.776Z,233
2019-04-04T02:57:09.515Z,233
2019-04-04T03:02:08.432Z,231
2019-04-04T03:07:08.401Z,231
2019-04-04T03:12:08.397Z,233
2019-04-04T03:13:14.362Z,232
2019-04-04T03:13:18.367Z,231
2019-04-04T03:17:08.454Z,230
2019-04-04T03:22:08.432Z,228
2019-04-04T03:27:08.414Z,228
2019-04-04T03:32:13.085Z,224
2019-04-04T03:37:12.088Z,227
2019-04-04T03:42:08.429Z,226
2019-04-04T03:45:06.375Z,226
2019-04-04T03:45:38.328Z,228
2019-04-04T03:47:10.345Z,225
2019-04-04T03:52:11.106Z,222
2019-04-04T03:57:10.880Z,220
2019-04-04T04:02:08.336Z,219
2019-04-04T04:07:08.374Z,220
2019-04-04T04:12:11.035Z,216
2019-04-04T04:17:09.018Z,218
2019-04-04T04:22:08.339Z,216
2019-04-04T04:27:08.351Z,216
2019-04-04T04:32:08.336Z,218
2019-04-04T04:37:08.326Z,225
2019-04-04T04:42:08.334Z,224
2019-04-04T04:47:08.305Z,222
2019-04-04T04:52:08.332Z,220
2019-04-04T04:57:08.327Z,216
2019-04-04T05:02:08.301Z,215
2019-04-04T05:07:08.275Z,213
2019-04-04T05:12:08.288Z,218
2019-04-04T05:17:10.101Z,223
2019-04-04T05:22:09.148Z,220
2019-04-04T05:27:08.332Z,221
2019-04-04T05:32:08.280Z,221
2019-04-04T05:37:08.290Z,221
2019-04-04T05:42:08.242Z,221
2019-04-04T05:47:08.248Z,221
2019-04-04T05:52:09.061Z,221
2019-04-04T05:57:08.275Z,221
2019-04-04T06:02:10.985Z,221
2019-04-04T06:07:08.245Z,221
2019-04-04T06:12:08.234Z,221
2019-04-04T06:17:08.233Z,221
2019-04-04T06:22:08.271Z,221
2019-04-04T06:27:09.082Z,221
2019-04-04T06:32:08.205Z,221
2019-04-04T06:37:08.186Z,221
2019-04-04T06:42:11.087Z,221
2019-04-04T06:47:08.184Z,221
2019-04-04T06:52:09.417Z,221
2019-04-04T06:57:08.207Z,221
2019-04-04T07:02:08.183Z,221
2019-04-04T07:07:08.193Z,221
2019-04-04T07:12:20.213Z,221
2019-04-04T07:17:08.647Z,221
2019-04-04T07:22:08.171Z,221
2019-04-04T07:27:08.215Z,221
2019-04-04T07:32:09.372Z,221
2019-04-04T07:37:08.152Z,221
2019-04-04T07:42:08.150Z,221
2019-04-04T07:47:08.135Z,221
2019-04-04T07:52:08.145Z,221
2019-04-04T07:57:08.148Z,221
2019-04-04T08:02:08.181Z,221
2019-04-04T08:07:08.156Z,221
2019-04-04T08:12:08.137Z,221
2019-04-04T08:17:08.118Z,221
2019-04-04T08:22:08.179Z,221
2019-04-04T08:27:08.132Z,221
2019-04-04T08:32:08.105Z,221
2019-04-04T08:37:08.281Z,221
2019-04-04T08:42:08.076Z,221
2019-04-04T08:47:08.113Z,221
2019-04-04T08:52:16.319Z,221
2019-04-04T08:57:08.087Z,221
2019-04-04T09:02:08.113Z,221
2019-04-04T09:07:08.155Z,221
2019-04-04T09:12:08.073Z,221
2019-04-04T09:17:08.077Z,221
2019-04-04T09:22:10.638Z,221
2019-04-04T09:27:08.042Z,221
2019-04-04T09:32:08.037Z,221
2019-04-04T09:37:08.745Z,221
2019-04-04T09:42:08.059Z,221
2019-04-04T09:47:08.041Z,221
2019-04-04T09:52:08.028Z,221
2019-04-04T09:57:08.009Z,221
2019-04-04T10:02:08.033Z,221
2019-04-04T10:07:08.023Z,221
2019-04-04T10:12:08.015Z,221
2019-04-04T10:17:08.001Z,221
2019-04-04T10:22:08.066Z,221
2019-04-04T10:27:07.984Z,221
2019-04-04T10:32:08.024Z,221
2019-04-04T10:37:08.013Z,221
2019-04-04T10:42:07.989Z,221
2019-04-04T10:47:07.977Z,221
2019-04-04T10:52:08.018Z,221
2019-04-04T10:57:08.025Z,221
2019-04-04T11:02:08.058Z,221
2019-04-04T11:07:07.974Z,221
2019-04-04T11:12:07.980Z,221
2019-04-04T11:17:07.946Z,221
2019-04-04T11:22:07.967Z,221
2019-04-04T11:27:08.024Z,221
2019-04-04T11:32:08.026Z,221
2019-04-04T11:37:08.030Z,221
2019-04-04T11:42:07.941Z,221
2019-04-04T11:47:07.957Z,221
2019-04-04T11:52:07.988Z,221
2019-04-04T11:57:07.902Z,221
2019-04-04T12:02:07.943Z,221
2019-04-04T12:07:08.123Z,221
2019-04-04T12:12:07.898Z,221
2019-04-04T12:17:07.899Z,221
2019-04-04T12:22:07.881Z,221
2019-04-04T12:27:07.919Z,221
2019-04-04T12:32:07.942Z,221
2019-04-04T12:37:07.901Z,221
2019-04-04T12:42:07.900Z,221
2019-04-04T12:47:07.876Z,221
2019-04-04T12:52:07.871Z,221
2019-04-04T12:57:07.870Z,221
2019-04-04T13:02:07.872Z,221
2019-04-04T13:07:07.838Z,221
2019-04-04T13:12:07.858Z,221
2019-04-04T13:17:07.899Z,221
2019-04-04T13:22:07.840Z,221
2019-04-04T13:27:07.849Z,221
2019-04-04T13:32:07.862Z,221
2019-04-04T13:37:07.852Z,221
2019-04-04T13:42:07.842Z,221
2019-04-04T13:47:07.865Z,221
2019-04-04T13:52:07.819Z,221
2019-04-04T13:57:07.821Z,221
2019-04-04T14:02:07.843Z,221
2019-04-04T14:07:07.791Z,221
2019-04-04T14:12:07.804Z,221
2019-04-04T14:17:07.784Z,221
2019-04-04T14:22:07.824Z,221
2019-04-04T14:27:07.814Z,221
2019-04-04T14:32:07.766Z,221
2019-04-04T14:37:07.827Z,221
2019-04-04T14:42:07.790Z,221
2019-04-04T14:47:07.761Z,221
2019-04-04T14:52:07.778Z,221
2019-04-04T14:57:07.788Z,221
2019-04-04T14:57:53.946Z,221
2019-04-04T14:58:01.959Z,222
2019-04-04T15:02:08.044Z,224
2019-04-04T15:07:07.995Z,226
2019-04-04T15:12:07.979Z,227
2019-04-04T15:17:08.030Z,227
2019-04-04T15:22:08.001Z,223
2019-04-04T15:27:08.005Z,225
2019-04-04T15:32:08.022Z,229
2019-04-04T15:37:07.975Z,226
2019-04-04T15:40:47.919Z,224
2019-04-04T15:41:01.957Z,222
2019-04-04T15:42:07.966Z,218
2019-04-04T15:47:07.976Z,222
2019-04-04T15:52:08.011Z,220
2019-04-04T15:57:07.945Z,224
2019-04-04T16:02:07.974Z,220
2019-04-04T16:07:07.937Z,220
2019-04-04T16:12:07.940Z,219
2019-04-04T16:17:07.966Z,219
2019-04-04T16:22:07.956Z,222
2019-04-04T16:27:08.146Z,220
2019-04-04T16:32:07.955Z,219
2019-04-04T16:37:07.922Z,218
2019-04-04T16:42:07.952Z,222
2019-04-04T16:47:07.955Z,222
2019-04-04T16:52:07.932Z,220
2019-04-04T16:57:07.901Z,222
2019-04-04T17:02:07.902Z,222
2019-04-04T17:07:07.933Z,224
2019-04-04T17:12:14.595Z,219
2019-04-04T17:17:07.886Z,218
2019-04-04T17:22:07.901Z,223
2019-04-04T17:27:07.888Z,221
2019-04-04T17:31:30.868Z,221
2019-04-04T17:31:41.114Z,224
2019-04-04T17:32:07.875Z,223
2019-04-04T17:37:07.875Z,219
2019-04-04T17:42:07.857Z,222
2019-04-04T17:47:07.866Z,221
2019-04-04T17:52:07.922Z,220
2019-04-04T17:57:07.839Z,225
2019-04-04T18:02:07.836Z,224
2019-04-04T18:07:07.858Z,221
2019-04-04T18:12:07.834Z,226
2019-04-04T18:17:07.855Z,222
2019-04-04T18:22:07.853Z,222
2019-04-04T18:27:07.803Z,224
2019-04-04T18:32:07.835Z,224
2019-04-04T18:37:08.017Z,225
2019-04-04T18:42:07.831Z,225
2019-04-04T18:47:07.788Z,227
2019-04-04T18:52:07.842Z,227
2019-04-04T18:57:07.809Z,227
2019-04-04T19:02:07.812Z,228
2019-04-04T19:07:07.826Z,226
2019-04-04T19:12:07.808Z,224
2019-04-04T19:17:07.803Z,228
2019-04-04T19:22:07.794Z,226
2019-04-04T19:27:07.791Z,223
2019-04-04T19:32:07.789Z,219
2019-04-04T19:37:07.786Z,220
2019-04-04T19:42:07.756Z,222
2019-04-04T19:47:07.758Z,222
2019-04-04T19:52:07.753Z,220
2019-04-04T19:57:07.774Z,221
2019-04-04T20:02:07.752Z,220
2019-04-04T20:07:07.760Z,221
2019-04-04T20:12:07.741Z,223
2019-04-04T20:17:07.744Z,223
2019-04-04T20:22:07.730Z,222
2019-04-04T20:27:07.699Z,224
2019-04-04T20:32:07.715Z,225
2019-04-04T20:37:07.695Z,225
2019-04-04T20:42:07.716Z,226
2019-04-04T20:44:27.642Z,226
2019-04-04T20:44:31.645Z,227
2019-04-04T20:47:07.733Z,225
2019-04-04T20:52:03.642Z,227
2019-04-04T20:52:07.703Z,229
2019-04-04T20:52:07.727Z,229
2019-04-04T20:57:07.687Z,230
2019-04-04T21:02:07.711Z,227
2019-04-04T21:07:07.684Z,227
2019-04-04T21:08:11.690Z,228
2019-04-04T21:08:15.617Z,227
2019-04-04T21:12:07.677Z,227
2019-04-04T21:17:07.671Z,230
2019-04-04T21:22:07.667Z,230
2019-04-04T21:27:07.658Z,232
2019-04-04T21:31:27.617Z,231
2019-04-04T21:31:31.625Z,231
2019-04-04T21:32:07.661Z,230
2019-04-04T21:37:07.663Z,232
2019-04-04T21:37:11.625Z,232
2019-04-04T21:38:15.634Z,231
2019-04-04T21:40:35.603Z,233
2019-04-04T21:40:41.622Z,233
2019-04-04T21:42:07.644Z,233
2019-04-04T21:47:07.667Z,234
2019-04-04T21:52:07.630Z,234
2019-04-04T21:57:07.637Z,232
2019-04-04T22:02:07.655Z,229
2019-04-04T22:07:07.653Z,231
2019-04-04T22:07:30.563Z,231
2019-04-04T22:07:34.580Z,231
2019-04-04T22:08:44.574Z,231
2019-04-04T22:09:14.606Z,231
2019-04-04T22:12:07.653Z,233
2019-04-04T22:14:21.796Z,233
2019-04-04T22:14:22.621Z,233
2019-04-04T22:17:07.596Z,233
2019-04-04T22:22:07.608Z,234
2019-04-04T22:27:07.645Z,233
2019-04-04T22:28:24.613Z,233
2019-04-04T22:28:28.550Z,233
2019-04-04T22:32:07.614Z,232
2019-04-04T22:37:07.626Z,232
2019-04-04T22:42:07.622Z,231
2019-04-04T22:47:07.593Z,230
2019-04-04T22:47:38.593Z,229
2019-04-04T22:47:42.528Z,230
2019-04-04T22:50:22.542Z,233
2019-04-04T22:50:26.557Z,232
2019-04-04T22:52:07.618Z,232
2019-04-04T22:57:07.581Z,231
2019-04-04T23:01:30.567Z,231
2019-04-04T23:01:38.551Z,231
2019-04-04T23:02:07.566Z,232
2019-04-04T23:07:07.599Z,233
2019-04-04T23:08:24.569Z,233
2019-04-04T23:08:28.515Z,233
2019-04-04T23:12:07.571Z,233
2019-04-04T23:17:07.618Z,234
2019-04-04T23:18:22.530Z,234
2019-04-04T23:18:26.543Z,234
2019-04-04T23:22:07.610Z,234
2019-04-04T23:27:07.542Z,231
2019-04-04T23:32:07.553Z,232
2019-04-04T23:37:07.566Z,230
2019-04-04T23:37:28.497Z,231
2019-04-04T23:37:58.483Z,230
2019-04-04T23:42:07.566Z,230
2019-04-04T23:47:07.529Z,231
2019-04-04T23:48:40.505Z,230
2019-04-04T23:48:44.520Z,230
2019-04-04T23:52:07.537Z,228
2019-04-04T23:54:12.473Z,229
2019-04-04T23:54:22.504Z,229
2019-04-04T23:57:07.551Z,229
2019-04-04T23:57:54.493Z,229
2019-04-04T23:57:58.495Z,230
